sensor_id;sensor_type;location;lat;lon;timestamp;P1;durP1;ratioP1;P2;durP2;ratioP2
11642;SDS011;5877;50.930;6.918;2022-07-29T00:00:19;5.03;;;1.43;;
11642;SDS011;5877;50.930;6.918;2022-07-29T00:02:46;2.80;;;1.50;;
11642;SDS011;5877;50.930;6.918;2022-07-29T00:05:13;5.33;;;1.93;;
11642;SDS011;5877;50.930;6.918;2022-07-29T00:07:40;7.00;;;2.03;;
11642;SDS011;5877;50.930;6.918;2022-07-29T00:10:08;6.33;;;1.70;;
11642;SDS011;5877;50.930;6.918;2022-07-29T00:12:35;2.43;;;1.53;;
11642;SDS011;5877;50.930;6.918;2022-07-29T00:15:03;6.47;;;1.80;;
11642;SDS011;5877;50.930;6.918;2022-07-29T00:17:31;4.77;;;1.60;;
11642;SDS011;5877;50.930;6.918;2022-07-29T00:19:58;6.17;;;1.60;;
11642;SDS011;5877;50.930;6.918;2022-07-29T00:22:25;5.67;;;1.60;;
11642;SDS011;5877;50.930;6.918;2022-07-29T00:24:52;4.67;;;1.60;;
11642;SDS011;5877;50.930;6.918;2022-07-29T00:27:36;4.43;;;1.60;;
11642;SDS011;5877;50.930;6.918;2022-07-29T00:30:04;5.00;;;1.73;;
11642;SDS011;5877;50.930;6.918;2022-07-29T00:32:32;4.13;;;1.53;;
11642;SDS011;5877;50.930;6.918;2022-07-29T00:35:00;4.23;;;2.07;;
11642;SDS011;5877;50.930;6.918;2022-07-29T00:37:46;6.20;;;1.77;;
11642;SDS011;5877;50.930;6.918;2022-07-29T00:40:13;3.67;;;1.40;;
11642;SDS011;5877;50.930;6.918;2022-07-29T00:42:47;3.90;;;1.57;;
11642;SDS011;5877;50.930;6.918;2022-07-29T00:45:17;4.33;;;1.43;;
11642;SDS011;5877;50.930;6.918;2022-07-29T00:47:45;8.00;;;1.77;;
11642;SDS011;5877;50.930;6.918;2022-07-29T00:50:13;2.70;;;1.40;;
11642;SDS011;5877;50.930;6.918;2022-07-29T00:52:41;4.70;;;1.50;;
11642;SDS011;5877;50.930;6.918;2022-07-29T00:55:10;3.63;;;1.70;;
11642;SDS011;5877;50.930;6.918;2022-07-29T00:57:40;4.13;;;1.60;;
11642;SDS011;5877;50.930;6.918;2022-07-29T01:00:10;2.53;;;1.40;;
11642;SDS011;5877;50.930;6.918;2022-07-29T01:02:41;4.30;;;1.50;;
11642;SDS011;5877;50.930;6.918;2022-07-29T01:05:08;4.70;;;1.60;;
11642;SDS011;5877;50.930;6.918;2022-07-29T01:07:37;5.13;;;1.93;;
11642;SDS011;5877;50.930;6.918;2022-07-29T01:10:06;4.87;;;1.63;;
11642;SDS011;5877;50.930;6.918;2022-07-29T01:12:35;5.80;;;1.60;;
11642;SDS011;5877;50.930;6.918;2022-07-29T01:15:04;4.87;;;1.70;;
11642;SDS011;5877;50.930;6.918;2022-07-29T01:20:39;5.07;;;1.60;;
11642;SDS011;5877;50.930;6.918;2022-07-29T01:29:24;5.83;;;2.13;;
11642;SDS011;5877;50.930;6.918;2022-07-29T01:32:11;5.00;;;1.40;;
11642;SDS011;5877;50.930;6.918;2022-07-29T01:40:51;4.23;;;1.97;;
11642;SDS011;5877;50.930;6.918;2022-07-29T01:43:21;4.13;;;1.67;;
11642;SDS011;5877;50.930;6.918;2022-07-29T01:46:09;3.63;;;1.80;;
11642;SDS011;5877;50.930;6.918;2022-07-29T01:54:04;4.90;;;2.10;;
11642;SDS011;5877;50.930;6.918;2022-07-29T01:56:35;2.73;;;1.60;;
11642;SDS011;5877;50.930;6.918;2022-07-29T01:59:03;3.50;;;1.50;;
11642;SDS011;5877;50.930;6.918;2022-07-29T02:01:32;4.63;;;1.60;;
11642;SDS011;5877;50.930;6.918;2022-07-29T02:04:01;3.10;;;1.70;;
11642;SDS011;5877;50.930;6.918;2022-07-29T02:06:30;5.90;;;1.67;;
11642;SDS011;5877;50.930;6.918;2022-07-29T02:08:59;5.43;;;1.67;;
11642;SDS011;5877;50.930;6.918;2022-07-29T02:11:27;5.13;;;1.53;;
11642;SDS011;5877;50.930;6.918;2022-07-29T02:13:54;6.50;;;2.00;;
11642;SDS011;5877;50.930;6.918;2022-07-29T02:16:23;2.73;;;1.90;;
11642;SDS011;5877;50.930;6.918;2022-07-29T02:18:52;5.67;;;1.77;;
11642;SDS011;5877;50.930;6.918;2022-07-29T02:21:23;2.70;;;1.87;;
11642;SDS011;5877;50.930;6.918;2022-07-29T02:23:51;2.93;;;1.37;;
11642;SDS011;5877;50.930;6.918;2022-07-29T02:26:22;4.10;;;1.63;;
11642;SDS011;5877;50.930;6.918;2022-07-29T02:28:51;4.30;;;1.70;;
11642;SDS011;5877;50.930;6.918;2022-07-29T02:31:19;3.50;;;1.80;;
11642;SDS011;5877;50.930;6.918;2022-07-29T02:33:48;3.50;;;2.10;;
11642;SDS011;5877;50.930;6.918;2022-07-29T02:36:16;5.03;;;1.87;;
11642;SDS011;5877;50.930;6.918;2022-07-29T02:38:45;3.33;;;1.53;;
11642;SDS011;5877;50.930;6.918;2022-07-29T02:41:20;3.53;;;1.90;;
11642;SDS011;5877;50.930;6.918;2022-07-29T02:43:57;4.93;;;1.83;;
11642;SDS011;5877;50.930;6.918;2022-07-29T02:46:30;3.03;;;1.70;;
11642;SDS011;5877;50.930;6.918;2022-07-29T02:51:55;4.10;;;1.80;;
11642;SDS011;5877;50.930;6.918;2022-07-29T02:54:33;3.00;;;1.97;;
11642;SDS011;5877;50.930;6.918;2022-07-29T02:57:19;3.00;;;1.57;;
11642;SDS011;5877;50.930;6.918;2022-07-29T02:59:48;3.33;;;1.73;;
11642;SDS011;5877;50.930;6.918;2022-07-29T03:02:17;3.97;;;1.90;;
11642;SDS011;5877;50.930;6.918;2022-07-29T03:04:44;3.87;;;1.60;;
11642;SDS011;5877;50.930;6.918;2022-07-29T03:07:13;5.30;;;1.70;;
11642;SDS011;5877;50.930;6.918;2022-07-29T03:09:41;4.30;;;1.60;;
11642;SDS011;5877;50.930;6.918;2022-07-29T03:12:09;4.33;;;1.90;;
11642;SDS011;5877;50.930;6.918;2022-07-29T03:14:37;4.30;;;1.70;;
11642;SDS011;5877;50.930;6.918;2022-07-29T03:17:04;2.07;;;1.70;;
11642;SDS011;5877;50.930;6.918;2022-07-29T03:19:32;3.60;;;1.63;;
11642;SDS011;5877;50.930;6.918;2022-07-29T03:21:59;5.33;;;1.80;;
11642;SDS011;5877;50.930;6.918;2022-07-29T03:24:33;4.20;;;2.27;;
11642;SDS011;5877;50.930;6.918;2022-07-29T03:27:03;6.80;;;1.80;;
11642;SDS011;5877;50.930;6.918;2022-07-29T03:29:30;6.13;;;1.70;;
11642;SDS011;5877;50.930;6.918;2022-07-29T03:32:02;3.50;;;1.60;;
11642;SDS011;5877;50.930;6.918;2022-07-29T03:34:34;4.43;;;1.90;;
11642;SDS011;5877;50.930;6.918;2022-07-29T03:37:02;4.97;;;1.50;;
11642;SDS011;5877;50.930;6.918;2022-07-29T03:39:31;3.27;;;1.87;;
11642;SDS011;5877;50.930;6.918;2022-07-29T03:42:01;4.43;;;1.70;;
11642;SDS011;5877;50.930;6.918;2022-07-29T03:44:28;4.50;;;1.70;;
11642;SDS011;5877;50.930;6.918;2022-07-29T03:46:57;6.83;;;1.80;;
11642;SDS011;5877;50.930;6.918;2022-07-29T03:49:26;3.90;;;1.60;;
11642;SDS011;5877;50.930;6.918;2022-07-29T03:51:54;6.87;;;2.07;;
11642;SDS011;5877;50.930;6.918;2022-07-29T03:54:21;3.93;;;1.80;;
11642;SDS011;5877;50.930;6.918;2022-07-29T03:56:50;3.50;;;1.90;;
11642;SDS011;5877;50.930;6.918;2022-07-29T03:59:18;5.17;;;2.10;;
11642;SDS011;5877;50.930;6.918;2022-07-29T04:01:46;5.17;;;2.33;;
11642;SDS011;5877;50.930;6.918;2022-07-29T04:04:14;4.53;;;1.90;;
11642;SDS011;5877;50.930;6.918;2022-07-29T04:06:43;6.90;;;1.80;;
11642;SDS011;5877;50.930;6.918;2022-07-29T04:09:14;3.77;;;1.90;;
11642;SDS011;5877;50.930;6.918;2022-07-29T04:11:41;3.33;;;1.83;;
11642;SDS011;5877;50.930;6.918;2022-07-29T04:14:30;4.23;;;1.80;;
11642;SDS011;5877;50.930;6.918;2022-07-29T04:16:59;8.10;;;2.10;;
11642;SDS011;5877;50.930;6.918;2022-07-29T04:19:27;4.80;;;2.37;;
11642;SDS011;5877;50.930;6.918;2022-07-29T04:21:54;5.40;;;2.17;;
11642;SDS011;5877;50.930;6.918;2022-07-29T04:24:22;4.10;;;2.03;;
11642;SDS011;5877;50.930;6.918;2022-07-29T04:26:49;3.80;;;1.97;;
11642;SDS011;5877;50.930;6.918;2022-07-29T04:29:16;3.50;;;1.90;;
11642;SDS011;5877;50.930;6.918;2022-07-29T04:31:43;4.83;;;2.30;;
11642;SDS011;5877;50.930;6.918;2022-07-29T04:34:11;5.30;;;1.80;;
11642;SDS011;5877;50.930;6.918;2022-07-29T04:36:39;3.67;;;2.07;;
11642;SDS011;5877;50.930;6.918;2022-07-29T04:39:06;6.87;;;2.00;;
11642;SDS011;5877;50.930;6.918;2022-07-29T04:41:34;8.77;;;7.47;;
11642;SDS011;5877;50.930;6.918;2022-07-29T04:44:01;6.23;;;3.27;;
11642;SDS011;5877;50.930;6.918;2022-07-29T04:46:33;4.77;;;2.30;;
11642;SDS011;5877;50.930;6.918;2022-07-29T04:49:01;3.23;;;1.90;;
11642;SDS011;5877;50.930;6.918;2022-07-29T04:51:29;5.67;;;1.87;;
11642;SDS011;5877;50.930;6.918;2022-07-29T04:53:58;5.43;;;2.57;;
11642;SDS011;5877;50.930;6.918;2022-07-29T04:56:26;3.30;;;1.93;;
11642;SDS011;5877;50.930;6.918;2022-07-29T04:58:54;5.97;;;2.03;;
11642;SDS011;5877;50.930;6.918;2022-07-29T05:01:21;5.63;;;2.00;;
11642;SDS011;5877;50.930;6.918;2022-07-29T05:03:48;5.77;;;2.00;;
11642;SDS011;5877;50.930;6.918;2022-07-29T05:06:15;4.27;;;2.00;;
11642;SDS011;5877;50.930;6.918;2022-07-29T05:08:42;4.93;;;2.00;;
11642;SDS011;5877;50.930;6.918;2022-07-29T05:11:09;6.00;;;2.13;;
11642;SDS011;5877;50.930;6.918;2022-07-29T05:13:39;6.90;;;1.90;;
11642;SDS011;5877;50.930;6.918;2022-07-29T05:16:13;10.00;;;4.30;;
11642;SDS011;5877;50.930;6.918;2022-07-29T05:18:40;19.90;;;17.77;;
11642;SDS011;5877;50.930;6.918;2022-07-29T05:21:09;15.63;;;12.37;;
11642;SDS011;5877;50.930;6.918;2022-07-29T05:23:36;8.47;;;4.10;;
11642;SDS011;5877;50.930;6.918;2022-07-29T05:26:04;7.33;;;3.77;;
11642;SDS011;5877;50.930;6.918;2022-07-29T05:28:34;5.17;;;2.20;;
11642;SDS011;5877;50.930;6.918;2022-07-29T05:31:01;8.20;;;2.50;;
11642;SDS011;5877;50.930;6.918;2022-07-29T05:33:29;6.87;;;2.27;;
11642;SDS011;5877;50.930;6.918;2022-07-29T05:36:03;3.20;;;2.03;;
11642;SDS011;5877;50.930;6.918;2022-07-29T05:38:34;4.40;;;1.90;;
11642;SDS011;5877;50.930;6.918;2022-07-29T05:41:02;5.37;;;2.00;;
11642;SDS011;5877;50.930;6.918;2022-07-29T05:43:30;6.10;;;1.93;;
11642;SDS011;5877;50.930;6.918;2022-07-29T05:45:58;5.13;;;2.03;;
11642;SDS011;5877;50.930;6.918;2022-07-29T05:48:25;6.13;;;2.00;;
11642;SDS011;5877;50.930;6.918;2022-07-29T05:50:53;4.10;;;1.80;;
11642;SDS011;5877;50.930;6.918;2022-07-29T05:53:21;6.70;;;1.53;;
11642;SDS011;5877;50.930;6.918;2022-07-29T05:55:49;4.33;;;1.70;;
11642;SDS011;5877;50.930;6.918;2022-07-29T05:58:20;5.07;;;1.63;;
11642;SDS011;5877;50.930;6.918;2022-07-29T06:00:50;4.87;;;2.10;;
11642;SDS011;5877;50.930;6.918;2022-07-29T06:03:17;6.47;;;1.83;;
11642;SDS011;5877;50.930;6.918;2022-07-29T06:05:46;11.40;;;2.00;;
11642;SDS011;5877;50.930;6.918;2022-07-29T06:08:13;4.63;;;1.80;;
11642;SDS011;5877;50.930;6.918;2022-07-29T06:10:41;3.60;;;1.43;;
11642;SDS011;5877;50.930;6.918;2022-07-29T06:13:08;6.43;;;1.70;;
11642;SDS011;5877;50.930;6.918;2022-07-29T06:15:36;9.13;;;1.70;;
11642;SDS011;5877;50.930;6.918;2022-07-29T06:18:03;4.60;;;1.90;;
11642;SDS011;5877;50.930;6.918;2022-07-29T06:20:34;7.60;;;2.00;;
11642;SDS011;5877;50.930;6.918;2022-07-29T06:23:01;3.83;;;1.87;;
11642;SDS011;5877;50.930;6.918;2022-07-29T06:25:31;5.60;;;1.60;;
11642;SDS011;5877;50.930;6.918;2022-07-29T06:28:01;6.30;;;2.23;;
11642;SDS011;5877;50.930;6.918;2022-07-29T06:30:28;6.07;;;2.37;;
11642;SDS011;5877;50.930;6.918;2022-07-29T06:33:04;7.80;;;2.40;;
11642;SDS011;5877;50.930;6.918;2022-07-29T06:35:34;3.53;;;2.13;;
11642;SDS011;5877;50.930;6.918;2022-07-29T06:38:07;4.30;;;2.20;;
11642;SDS011;5877;50.930;6.918;2022-07-29T06:41:03;5.87;;;2.30;;
11642;SDS011;5877;50.930;6.918;2022-07-29T06:43:37;7.00;;;2.23;;
11642;SDS011;5877;50.930;6.918;2022-07-29T06:46:18;9.37;;;2.27;;
11642;SDS011;5877;50.930;6.918;2022-07-29T06:48:47;3.53;;;2.03;;
11642;SDS011;5877;50.930;6.918;2022-07-29T06:51:15;5.77;;;2.20;;
11642;SDS011;5877;50.930;6.918;2022-07-29T06:53:49;7.23;;;2.43;;
11642;SDS011;5877;50.930;6.918;2022-07-29T06:56:32;6.03;;;1.80;;
11642;SDS011;5877;50.930;6.918;2022-07-29T06:59:05;7.23;;;2.53;;
11642;SDS011;5877;50.930;6.918;2022-07-29T07:01:38;7.30;;;2.20;;
11642;SDS011;5877;50.930;6.918;2022-07-29T07:04:07;6.77;;;2.20;;
11642;SDS011;5877;50.930;6.918;2022-07-29T07:06:35;7.73;;;3.00;;
11642;SDS011;5877;50.930;6.918;2022-07-29T07:09:04;7.27;;;2.67;;
11642;SDS011;5877;50.930;6.918;2022-07-29T07:11:32;5.03;;;2.20;;
11642;SDS011;5877;50.930;6.918;2022-07-29T07:13:59;6.73;;;2.73;;
11642;SDS011;5877;50.930;6.918;2022-07-29T07:16:30;10.13;;;2.70;;
11642;SDS011;5877;50.930;6.918;2022-07-29T07:18:58;6.03;;;2.67;;
11642;SDS011;5877;50.930;6.918;2022-07-29T07:21:26;7.07;;;2.47;;
11642;SDS011;5877;50.930;6.918;2022-07-29T07:23:57;9.57;;;3.13;;
11642;SDS011;5877;50.930;6.918;2022-07-29T07:26:25;3.50;;;2.17;;
11642;SDS011;5877;50.930;6.918;2022-07-29T07:28:52;6.50;;;3.00;;
11642;SDS011;5877;50.930;6.918;2022-07-29T07:31:19;7.07;;;2.93;;
11642;SDS011;5877;50.930;6.918;2022-07-29T07:33:47;7.03;;;2.73;;
11642;SDS011;5877;50.930;6.918;2022-07-29T07:36:15;8.43;;;2.80;;
11642;SDS011;5877;50.930;6.918;2022-07-29T07:38:42;6.70;;;2.97;;
11642;SDS011;5877;50.930;6.918;2022-07-29T07:41:10;10.73;;;3.00;;
11642;SDS011;5877;50.930;6.918;2022-07-29T07:43:39;9.27;;;3.10;;
11642;SDS011;5877;50.930;6.918;2022-07-29T07:46:07;6.70;;;3.00;;
11642;SDS011;5877;50.930;6.918;2022-07-29T07:48:34;7.13;;;2.80;;
11642;SDS011;5877;50.930;6.918;2022-07-29T07:51:03;7.67;;;2.83;;
11642;SDS011;5877;50.930;6.918;2022-07-29T07:53:30;6.70;;;2.83;;
11642;SDS011;5877;50.930;6.918;2022-07-29T07:55:58;6.43;;;2.97;;
11642;SDS011;5877;50.930;6.918;2022-07-29T07:58:36;5.80;;;2.70;;
11642;SDS011;5877;50.930;6.918;2022-07-29T08:01:04;6.77;;;2.77;;
11642;SDS011;5877;50.930;6.918;2022-07-29T08:03:34;5.67;;;2.80;;
11642;SDS011;5877;50.930;6.918;2022-07-29T08:06:02;5.10;;;2.63;;
11642;SDS011;5877;50.930;6.918;2022-07-29T08:08:29;8.00;;;3.20;;
11642;SDS011;5877;50.930;6.918;2022-07-29T08:10:57;7.90;;;3.17;;
11642;SDS011;5877;50.930;6.918;2022-07-29T08:13:32;8.63;;;3.03;;
11642;SDS011;5877;50.930;6.918;2022-07-29T08:15:59;6.63;;;3.70;;
11642;SDS011;5877;50.930;6.918;2022-07-29T08:18:38;10.23;;;4.70;;
11642;SDS011;5877;50.930;6.918;2022-07-29T08:21:07;7.77;;;4.20;;
11642;SDS011;5877;50.930;6.918;2022-07-29T08:23:35;10.20;;;4.97;;
11642;SDS011;5877;50.930;6.918;2022-07-29T08:26:14;8.33;;;5.33;;
11642;SDS011;5877;50.930;6.918;2022-07-29T08:28:42;11.03;;;5.93;;
11642;SDS011;5877;50.930;6.918;2022-07-29T08:31:15;12.00;;;5.90;;
11642;SDS011;5877;50.930;6.918;2022-07-29T08:33:43;13.63;;;6.97;;
11642;SDS011;5877;50.930;6.918;2022-07-29T08:36:10;11.00;;;6.37;;
11642;SDS011;5877;50.930;6.918;2022-07-29T08:38:39;8.87;;;5.37;;
11642;SDS011;5877;50.930;6.918;2022-07-29T08:41:06;14.40;;;5.50;;
11642;SDS011;5877;50.930;6.918;2022-07-29T08:43:33;9.17;;;5.33;;
11642;SDS011;5877;50.930;6.918;2022-07-29T08:46:05;12.83;;;5.67;;
11642;SDS011;5877;50.930;6.918;2022-07-29T08:48:32;9.07;;;5.17;;
11642;SDS011;5877;50.930;6.918;2022-07-29T08:50:59;12.83;;;5.07;;
11642;SDS011;5877;50.930;6.918;2022-07-29T08:53:29;11.00;;;6.03;;
11642;SDS011;5877;50.930;6.918;2022-07-29T08:55:57;14.53;;;7.03;;
11642;SDS011;5877;50.930;6.918;2022-07-29T08:58:24;10.93;;;5.53;;
11642;SDS011;5877;50.930;6.918;2022-07-29T09:00:53;12.47;;;6.73;;
11642;SDS011;5877;50.930;6.918;2022-07-29T09:03:25;8.70;;;5.70;;
11642;SDS011;5877;50.930;6.918;2022-07-29T09:05:57;7.83;;;5.03;;
11642;SDS011;5877;50.930;6.918;2022-07-29T09:08:25;10.23;;;4.33;;
11642;SDS011;5877;50.930;6.918;2022-07-29T09:10:53;6.40;;;3.50;;
11642;SDS011;5877;50.930;6.918;2022-07-29T09:13:22;8.53;;;3.77;;
11642;SDS011;5877;50.930;6.918;2022-07-29T09:15:49;6.80;;;3.27;;
11642;SDS011;5877;50.930;6.918;2022-07-29T09:21:05;7.43;;;3.20;;
11642;SDS011;5877;50.930;6.918;2022-07-29T09:24:11;5.53;;;3.20;;
11642;SDS011;5877;50.930;6.918;2022-07-29T09:26:40;6.70;;;2.90;;
11642;SDS011;5877;50.930;6.918;2022-07-29T09:29:15;4.63;;;2.73;;
11642;SDS011;5877;50.930;6.918;2022-07-29T09:31:47;7.50;;;2.70;;
11642;SDS011;5877;50.930;6.918;2022-07-29T09:34:25;5.83;;;3.10;;
11642;SDS011;5877;50.930;6.918;2022-07-29T09:36:53;8.03;;;3.13;;
11642;SDS011;5877;50.930;6.918;2022-07-29T09:39:38;6.43;;;2.70;;
11642;SDS011;5877;50.930;6.918;2022-07-29T09:42:13;6.83;;;2.67;;
11642;SDS011;5877;50.930;6.918;2022-07-29T09:47:11;6.10;;;2.40;;
11642;SDS011;5877;50.930;6.918;2022-07-29T09:52:28;7.47;;;2.80;;
11642;SDS011;5877;50.930;6.918;2022-07-29T09:55:04;4.20;;;2.40;;
11642;SDS011;5877;50.930;6.918;2022-07-29T09:57:44;3.97;;;2.40;;
11642;SDS011;5877;50.930;6.918;2022-07-29T10:00:14;6.77;;;2.50;;
11642;SDS011;5877;50.930;6.918;2022-07-29T10:02:44;6.00;;;2.70;;
11642;SDS011;5877;50.930;6.918;2022-07-29T10:05:17;6.87;;;3.13;;
11642;SDS011;5877;50.930;6.918;2022-07-29T10:07:54;5.33;;;2.63;;
11642;SDS011;5877;50.930;6.918;2022-07-29T10:10:25;7.70;;;2.40;;
11642;SDS011;5877;50.930;6.918;2022-07-29T10:12:56;6.90;;;2.73;;
11642;SDS011;5877;50.930;6.918;2022-07-29T10:15:32;5.60;;;2.30;;
11642;SDS011;5877;50.930;6.918;2022-07-29T10:18:05;6.23;;;2.73;;
11642;SDS011;5877;50.930;6.918;2022-07-29T10:20:33;3.80;;;2.37;;
11642;SDS011;5877;50.930;6.918;2022-07-29T10:23:01;3.97;;;2.40;;
11642;SDS011;5877;50.930;6.918;2022-07-29T10:25:29;8.03;;;2.83;;
11642;SDS011;5877;50.930;6.918;2022-07-29T10:27:58;5.87;;;2.70;;
11642;SDS011;5877;50.930;6.918;2022-07-29T10:30:25;10.10;;;2.90;;
11642;SDS011;5877;50.930;6.918;2022-07-29T10:35:59;8.30;;;2.83;;
11642;SDS011;5877;50.930;6.918;2022-07-29T10:38:49;7.50;;;2.80;;
11642;SDS011;5877;50.930;6.918;2022-07-29T10:41:43;6.47;;;2.70;;
11642;SDS011;5877;50.930;6.918;2022-07-29T10:44:23;5.33;;;2.83;;
11642;SDS011;5877;50.930;6.918;2022-07-29T10:46:52;8.57;;;3.33;;
11642;SDS011;5877;50.930;6.918;2022-07-29T10:49:24;7.07;;;3.20;;
11642;SDS011;5877;50.930;6.918;2022-07-29T10:52:03;6.17;;;2.67;;
11642;SDS011;5877;50.930;6.918;2022-07-29T10:54:50;4.33;;;2.87;;
11642;SDS011;5877;50.930;6.918;2022-07-29T10:57:20;8.20;;;2.97;;
11642;SDS011;5877;50.930;6.918;2022-07-29T11:02:43;7.63;;;2.70;;
11642;SDS011;5877;50.930;6.918;2022-07-29T11:05:19;4.50;;;2.90;;
11642;SDS011;5877;50.930;6.918;2022-07-29T11:11:32;3.17;;;2.60;;
11642;SDS011;5877;50.930;6.918;2022-07-29T11:14:00;5.80;;;2.40;;
11642;SDS011;5877;50.930;6.918;2022-07-29T11:19:32;6.33;;;2.77;;
11642;SDS011;5877;50.930;6.918;2022-07-29T11:22:01;8.70;;;2.80;;
11642;SDS011;5877;50.930;6.918;2022-07-29T11:24:29;6.77;;;2.33;;
11642;SDS011;5877;50.930;6.918;2022-07-29T11:27:14;5.73;;;2.20;;
11642;SDS011;5877;50.930;6.918;2022-07-29T11:32:20;6.83;;;2.40;;
11642;SDS011;5877;50.930;6.918;2022-07-29T11:34:49;6.20;;;2.87;;
11642;SDS011;5877;50.930;6.918;2022-07-29T11:43:47;6.07;;;2.50;;
11642;SDS011;5877;50.930;6.918;2022-07-29T11:49:25;5.93;;;3.10;;
11642;SDS011;5877;50.930;6.918;2022-07-29T11:52:13;4.13;;;2.30;;
11642;SDS011;5877;50.930;6.918;2022-07-29T11:54:41;5.73;;;2.20;;
11642;SDS011;5877;50.930;6.918;2022-07-29T11:57:23;5.70;;;2.50;;
11642;SDS011;5877;50.930;6.918;2022-07-29T12:00:41;6.60;;;2.50;;
11642;SDS011;5877;50.930;6.918;2022-07-29T12:03:12;4.60;;;2.40;;
11642;SDS011;5877;50.930;6.918;2022-07-29T12:06:03;4.43;;;2.00;;
11642;SDS011;5877;50.930;6.918;2022-07-29T12:08:39;2.90;;;2.00;;
11642;SDS011;5877;50.930;6.918;2022-07-29T12:11:19;7.87;;;2.10;;
11642;SDS011;5877;50.930;6.918;2022-07-29T12:13:50;5.27;;;2.50;;
11642;SDS011;5877;50.930;6.918;2022-07-29T12:16:18;3.20;;;1.87;;
11642;SDS011;5877;50.930;6.918;2022-07-29T12:18:58;4.17;;;2.37;;
11642;SDS011;5877;50.930;6.918;2022-07-29T12:21:29;7.63;;;2.40;;
11642;SDS011;5877;50.930;6.918;2022-07-29T12:24:22;6.07;;;3.43;;
11642;SDS011;5877;50.930;6.918;2022-07-29T12:26:57;3.93;;;2.17;;
11642;SDS011;5877;50.930;6.918;2022-07-29T12:29:26;3.93;;;2.27;;
11642;SDS011;5877;50.930;6.918;2022-07-29T12:32:01;6.97;;;2.47;;
11642;SDS011;5877;50.930;6.918;2022-07-29T12:34:30;4.07;;;1.93;;
11642;SDS011;5877;50.930;6.918;2022-07-29T12:36:58;6.23;;;2.47;;
11642;SDS011;5877;50.930;6.918;2022-07-29T12:39:26;3.13;;;2.23;;
11642;SDS011;5877;50.930;6.918;2022-07-29T12:41:54;3.40;;;2.03;;
11642;SDS011;5877;50.930;6.918;2022-07-29T12:44:49;4.77;;;1.83;;
11642;SDS011;5877;50.930;6.918;2022-07-29T12:47:17;8.57;;;2.60;;
11642;SDS011;5877;50.930;6.918;2022-07-29T12:49:45;4.67;;;1.70;;
11642;SDS011;5877;50.930;6.918;2022-07-29T12:55:11;4.60;;;2.23;;
11642;SDS011;5877;50.930;6.918;2022-07-29T12:57:48;7.07;;;2.47;;
11642;SDS011;5877;50.930;6.918;2022-07-29T13:00:21;4.87;;;2.40;;
11642;SDS011;5877;50.930;6.918;2022-07-29T13:03:20;2.80;;;1.60;;
11642;SDS011;5877;50.930;6.918;2022-07-29T13:05:50;5.50;;;1.90;;
11642;SDS011;5877;50.930;6.918;2022-07-29T13:08:17;5.33;;;2.30;;
11642;SDS011;5877;50.930;6.918;2022-07-29T13:10:48;4.33;;;2.00;;
11642;SDS011;5877;50.930;6.918;2022-07-29T13:13:15;4.23;;;2.37;;
11642;SDS011;5877;50.930;6.918;2022-07-29T13:15:43;6.97;;;2.57;;
11642;SDS011;5877;50.930;6.918;2022-07-29T13:21:16;3.77;;;2.20;;
11642;SDS011;5877;50.930;6.918;2022-07-29T13:23:45;6.23;;;2.43;;
11642;SDS011;5877;50.930;6.918;2022-07-29T13:26:12;6.07;;;2.40;;
11642;SDS011;5877;50.930;6.918;2022-07-29T13:28:40;10.17;;;2.87;;
11642;SDS011;5877;50.930;6.918;2022-07-29T13:31:12;3.93;;;2.73;;
11642;SDS011;5877;50.930;6.918;2022-07-29T13:33:43;8.37;;;2.73;;
11642;SDS011;5877;50.930;6.918;2022-07-29T13:36:10;6.93;;;3.03;;
11642;SDS011;5877;50.930;6.918;2022-07-29T13:38:37;5.97;;;2.87;;
11642;SDS011;5877;50.930;6.918;2022-07-29T13:41:04;9.63;;;3.80;;
11642;SDS011;5877;50.930;6.918;2022-07-29T13:43:32;8.70;;;3.23;;
11642;SDS011;5877;50.930;6.918;2022-07-29T13:45:59;6.17;;;2.93;;
11642;SDS011;5877;50.930;6.918;2022-07-29T13:48:27;7.90;;;2.80;;
11642;SDS011;5877;50.930;6.918;2022-07-29T13:50:54;8.53;;;2.60;;
11642;SDS011;5877;50.930;6.918;2022-07-29T13:53:21;5.00;;;2.90;;
11642;SDS011;5877;50.930;6.918;2022-07-29T13:55:54;6.47;;;2.97;;
11642;SDS011;5877;50.930;6.918;2022-07-29T13:58:21;4.97;;;2.63;;
11642;SDS011;5877;50.930;6.918;2022-07-29T14:00:49;7.57;;;4.17;;
11642;SDS011;5877;50.930;6.918;2022-07-29T14:03:16;7.57;;;3.30;;
11642;SDS011;5877;50.930;6.918;2022-07-29T14:05:43;4.73;;;2.80;;
11642;SDS011;5877;50.930;6.918;2022-07-29T14:08:10;6.37;;;2.70;;
11642;SDS011;5877;50.930;6.918;2022-07-29T14:10:37;4.27;;;2.60;;
11642;SDS011;5877;50.930;6.918;2022-07-29T14:13:04;5.47;;;3.20;;
11642;SDS011;5877;50.930;6.918;2022-07-29T14:15:50;7.30;;;2.83;;
11642;SDS011;5877;50.930;6.918;2022-07-29T14:18:17;8.17;;;3.17;;
11642;SDS011;5877;50.930;6.918;2022-07-29T14:20:44;6.60;;;2.70;;
11642;SDS011;5877;50.930;6.918;2022-07-29T14:23:11;7.80;;;3.50;;
11642;SDS011;5877;50.930;6.918;2022-07-29T14:25:42;5.57;;;2.73;;
11642;SDS011;5877;50.930;6.918;2022-07-29T14:28:10;7.90;;;2.60;;
11642;SDS011;5877;50.930;6.918;2022-07-29T14:30:40;12.00;;;3.13;;
11642;SDS011;5877;50.930;6.918;2022-07-29T14:33:09;5.67;;;3.17;;
11642;SDS011;5877;50.930;6.918;2022-07-29T14:35:37;8.47;;;3.93;;
11642;SDS011;5877;50.930;6.918;2022-07-29T14:38:04;8.67;;;4.77;;
11642;SDS011;5877;50.930;6.918;2022-07-29T14:40:32;7.50;;;3.47;;
11642;SDS011;5877;50.930;6.918;2022-07-29T14:42:59;6.47;;;3.37;;
11642;SDS011;5877;50.930;6.918;2022-07-29T14:45:26;6.27;;;3.10;;
11642;SDS011;5877;50.930;6.918;2022-07-29T14:47:54;7.83;;;3.60;;
11642;SDS011;5877;50.930;6.918;2022-07-29T14:50:23;6.33;;;3.17;;
11642;SDS011;5877;50.930;6.918;2022-07-29T14:52:58;5.77;;;2.77;;
11642;SDS011;5877;50.930;6.918;2022-07-29T14:55:28;7.67;;;2.90;;
11642;SDS011;5877;50.930;6.918;2022-07-29T14:57:55;7.23;;;2.83;;
11642;SDS011;5877;50.930;6.918;2022-07-29T15:00:35;6.60;;;2.43;;
11642;SDS011;5877;50.930;6.918;2022-07-29T15:03:03;5.73;;;2.80;;
11642;SDS011;5877;50.930;6.918;2022-07-29T15:05:31;5.63;;;2.50;;
11642;SDS011;5877;50.930;6.918;2022-07-29T15:07:59;4.27;;;2.53;;
11642;SDS011;5877;50.930;6.918;2022-07-29T15:10:26;5.60;;;2.50;;
11642;SDS011;5877;50.930;6.918;2022-07-29T15:12:55;3.40;;;1.80;;
11642;SDS011;5877;50.930;6.918;2022-07-29T15:15:23;3.57;;;2.07;;
11642;SDS011;5877;50.930;6.918;2022-07-29T15:17:54;6.13;;;2.60;;
11642;SDS011;5877;50.930;6.918;2022-07-29T15:20:22;3.30;;;2.10;;
11642;SDS011;5877;50.930;6.918;2022-07-29T15:22:53;5.07;;;2.13;;
11642;SDS011;5877;50.930;6.918;2022-07-29T15:25:22;5.93;;;2.07;;
11642;SDS011;5877;50.930;6.918;2022-07-29T15:27:50;3.77;;;2.10;;
11642;SDS011;5877;50.930;6.918;2022-07-29T15:30:21;5.07;;;2.27;;
11642;SDS011;5877;50.930;6.918;2022-07-29T15:33:00;5.10;;;2.43;;
11642;SDS011;5877;50.930;6.918;2022-07-29T15:35:28;5.70;;;1.93;;
11642;SDS011;5877;50.930;6.918;2022-07-29T15:37:56;6.90;;;2.70;;
11642;SDS011;5877;50.930;6.918;2022-07-29T15:40:23;3.83;;;2.40;;
11642;SDS011;5877;50.930;6.918;2022-07-29T15:42:50;4.27;;;2.37;;
11642;SDS011;5877;50.930;6.918;2022-07-29T15:45:17;5.97;;;2.17;;
11642;SDS011;5877;50.930;6.918;2022-07-29T15:47:44;4.23;;;2.63;;
11642;SDS011;5877;50.930;6.918;2022-07-29T15:50:12;4.10;;;2.23;;
11642;SDS011;5877;50.930;6.918;2022-07-29T15:52:42;3.00;;;2.00;;
11642;SDS011;5877;50.930;6.918;2022-07-29T15:55:09;6.33;;;2.03;;
11642;SDS011;5877;50.930;6.918;2022-07-29T15:57:39;3.10;;;2.17;;
11642;SDS011;5877;50.930;6.918;2022-07-29T16:00:06;4.47;;;2.90;;
11642;SDS011;5877;50.930;6.918;2022-07-29T16:02:34;4.83;;;2.27;;
11642;SDS011;5877;50.930;6.918;2022-07-29T16:05:01;2.87;;;1.90;;
11642;SDS011;5877;50.930;6.918;2022-07-29T16:07:28;2.80;;;1.80;;
11642;SDS011;5877;50.930;6.918;2022-07-29T16:09:59;4.63;;;2.57;;
11642;SDS011;5877;50.930;6.918;2022-07-29T16:12:26;4.43;;;2.47;;
11642;SDS011;5877;50.930;6.918;2022-07-29T16:14:53;3.93;;;2.70;;
11642;SDS011;5877;50.930;6.918;2022-07-29T16:17:22;4.30;;;2.13;;
11642;SDS011;5877;50.930;6.918;2022-07-29T16:19:49;3.63;;;1.97;;
11642;SDS011;5877;50.930;6.918;2022-07-29T16:22:16;3.57;;;2.03;;